Time;durP1;ratioP1;P1;durP2;ratioP2;P2;SDS_P1;SDS_P2;PMS_P1;PMS_P2;Temp;Humidity;BMP_temperature;BMP_pressure;BME280_temperature;BME280_humidity;BME280_pressure;Samples;Min_cycle;Max_cycle;Signal;HPM_P1;HPM_P2
2021/09/03 00:00:57;;;;;;;0.57;0.10;;;;;;;10.58;66.13;100417.24;1689191;83;21142;-75
2021/09/03 00:03:23;;;;;;;1.15;0.10;;;;;;;10.59;66.09;100414.91;1692802;83;21003;-74
2021/09/03 00:05:50;;;;;;;0.53;0.17;;;;;;;10.63;66.40;100421.52;1693218;83;21026;-73
2021/09/03 00:08:16;;;;;;;0.65;0.20;;;;;;;10.64;66.03;100417.34;1693622;82;21598;-74
2021/09/03 00:10:43;;;;;;;1.03;0.20;;;;;;;10.60;66.16;100425.36;1677504;83;21042;-74
2021/09/03 00:13:09;;;;;;;4.75;0.10;;;;;;;10.54;66.33;100410.64;1693530;83;21018;-74
2021/09/03 00:15:36;;;;;;;0.25;0.10;;;;;;;10.52;66.38;100414.30;1679821;83;21585;-74
2021/09/03 00:18:02;;;;;;;0.60;0.10;;;;;;;10.50;66.45;100415.00;1689961;83;20987;-74
2021/09/03 00:20:29;;;;;;;3.57;0.30;;;;;;;10.48;66.53;100407.70;1685551;83;21615;-74
2021/09/03 00:22:56;;;;;;;2.43;0.10;;;;;;;10.48;66.69;100411.69;1674341;84;21140;-74
2021/09/03 00:25:22;;;;;;;1.43;0.10;;;;;;;10.55;66.58;100408.28;1666677;83;21022;-74
2021/09/03 00:27:48;;;;;;;0.23;0.20;;;;;;;10.58;66.47;100408.73;1647150;85;21134;-72
2021/09/03 00:30:14;;;;;;;0.68;0.10;;;;;;;10.54;66.49;100408.79;1649491;85;21087;-73
2021/09/03 00:32:42;;;;;;;0.33;0.30;;;;;;;10.50;66.52;100407.52;1650386;85;21096;-74
2021/09/03 00:35:09;;;;;;;1.45;0.10;;;;;;;10.46;66.52;100418.23;1649927;85;21610;-73
2021/09/03 00:37:35;;;;;;;;;;;;;;;10.43;66.55;100419.92;1668470;84;21121;-74
2021/09/03 00:40:05;;;;;;;;;;;;;;;10.41;66.67;100419.28;1685745;84;20143;-74
2021/09/03 00:42:33;;;;;;;0.17;0.17;;;;;;;10.39;67.03;100415.98;1658379;84;20183;-74
2021/09/03 00:45:01;;;;;;;0.77;0.30;;;;;;;10.37;66.94;100408.17;1643531;85;21075;-73
2021/09/03 00:47:27;;;;;;;0.90;0.30;;;;;;;10.35;66.86;100410.70;1659525;85;21054;-74
2021/09/03 00:49:53;;;;;;;0.30;0.10;;;;;;;10.30;66.93;100409.88;1665502;85;21275;-73
2021/09/03 00:52:21;;;;;;;0.40;0.20;;;;;;;10.25;67.03;100407.78;1630038;86;21630;-74
2021/09/03 00:54:47;;;;;;;0.70;0.23;;;;;;;10.22;67.09;100407.33;1656165;84;21508;-74
2021/09/03 00:57:15;;;;;;;1.80;0.10;;;;;;;10.20;67.17;100406.17;1690341;83;21690;-75
2021/09/03 00:59:41;;;;;;;1.93;0.20;;;;;;;10.23;67.08;100407.66;1665718;83;21010;-74
2021/09/03 01:02:07;;;;;;;0.70;0.20;;;;;;;10.21;67.87;100406.98;1681384;83;21160;-73
2021/09/03 01:04:34;;;;;;;0.77;0.30;;;;;;;10.24;67.39;100410.11;1680384;83;21081;-73
2021/09/03 01:07:01;;;;;;;0.70;0.20;;;;;;;10.22;67.17;100412.66;1660581;83;21773;-74
2021/09/03 01:09:27;;;;;;;0.30;0.10;;;;;;;10.21;67.19;100412.31;1693811;83;21647;-74
2021/09/03 01:11:55;;;;;;;0.20;0.10;;;;;;;10.20;67.27;100412.83;1686778;83;21138;-76
2021/09/03 01:14:23;;;;;;;1.50;0.10;;;;;;;10.20;67.25;100412.83;1688189;83;21323;-75
2021/09/03 01:16:51;;;;;;;2.50;0.20;;;;;;;10.19;67.08;100413.01;1685592;83;21078;-75
2021/09/03 01:19:18;;;;;;;1.67;0.20;;;;;;;10.21;67.04;100419.83;1691715;83;21062;-74
2021/09/03 01:21:50;;;;;;;0.20;0.10;;;;;;;10.24;67.40;100418.62;1678846;83;21120;-74
2021/09/03 01:24:19;;;;;;;0.33;0.10;;;;;;;10.26;67.03;100420.08;1678623;84;21159;-75
2021/09/03 01:26:46;;;;;;;2.13;0.20;;;;;;;10.23;66.79;100427.13;1672671;84;21061;-75
2021/09/03 01:29:13;;;;;;;0.78;0.35;;;;;;;10.18;67.05;100414.85;1690279;83;21095;-74
2021/09/03 01:31:42;;;;;;;0.23;0.20;;;;;;;10.13;67.29;100419.90;1672572;84;21177;-75
2021/09/03 01:34:08;;;;;;;0.20;0.10;;;;;;;10.09;67.14;100415.44;1690603;82;21105;-76
2021/09/03 01:36:35;;;;;;;2.40;0.23;;;;;;;10.07;67.11;100413.47;1695722;83;21093;-74
2021/09/03 01:39:03;;;;;;;0.40;0.13;;;;;;;10.07;66.99;100407.32;1698219;82;21563;-74
2021/09/03 01:41:29;;;;;;;0.50;0.10;;;;;;;10.06;67.09;100411.83;1708008;82;21148;-73
2021/09/03 01:43:55;;;;;;;1.00;0.10;;;;;;;10.06;67.12;100416.34;1677581;84;21015;-74
2021/09/03 01:46:22;;;;;;;0.20;0.20;;;;;;;10.05;67.22;100412.01;1678556;84;21141;-75
2021/09/03 01:48:49;;;;;;;0.93;0.20;;;;;;;10.01;67.10;100417.38;1691660;83;22381;-73
2021/09/03 01:51:15;;;;;;;0.43;0.10;;;;;;;9.99;67.49;100413.56;1667600;84;21027;-74
2021/09/03 01:53:42;;;;;;;0.42;0.10;;;;;;;9.97;67.24;100410.77;1715581;81;21090;-74
2021/09/03 01:56:11;;;;;;;0.97;0.10;;;;;;;9.91;67.27;100409.16;1715841;82;21062;-75
2021/09/03 01:58:37;;;;;;;1.13;0.10;;;;;;;9.89;67.37;100408.52;1690941;82;21065;-74
2021/09/03 02:01:03;;;;;;;0.20;0.10;;;;;;;9.89;67.48;100401.04;1689412;82;21164;-75
2021/09/03 02:03:30;;;;;;;0.88;0.10;;;;;;;9.90;67.45;100408.00;1689206;83;21597;-73
2021/09/03 02:05:58;;;;;;;0.20;0.10;;;;;;;9.87;67.68;100403.88;1681569;83;21602;-74
2021/09/03 02:08:26;;;;;;;0.82;0.10;;;;;;;9.84;67.67;100402.89;1683339;83;21138;-75
2021/09/03 02:10:52;;;;;;;0.62;0.17;;;;;;;9.79;67.78;100407.11;1702967;83;21414;-74
2021/09/03 02:13:18;;;;;;;0.53;0.17;;;;;;;9.75;68.00;100407.98;1685823;83;21166;-74
2021/09/03 02:17:09;;;;;;;3.10;0.10;;;;;;;9.77;68.26;100396.64;1790108;79;26532;-75
2021/09/03 02:19:33;;;;;;;0.90;0.20;;;;;;;9.79;68.00;100399.94;1760322;80;20979;-75
2021/09/03 02:21:59;;;;;;;0.55;0.20;;;;;;;9.84;67.84;100409.55;1769116;80;21034;-75
2021/09/03 02:24:26;;;;;;;0.20;0.10;;;;;;;9.82;68.03;100406.25;1717914;80;21054;-74
2021/09/03 02:26:52;;;;;;;1.40;0.20;;;;;;;9.79;68.00;100414.58;1706119;81;21100;-74
2021/09/03 02:29:18;;;;;;;0.87;0.20;;;;;;;9.72;68.21;100413.17;1707254;81;22375;-74
2021/09/03 02:31:44;;;;;;;0.40;0.20;;;;;;;9.67;68.46;100411.55;1725174;81;21129;-74
2021/09/03 02:34:10;;;;;;;0.20;0.10;;;;;;;9.66;68.66;100409.91;1716096;81;21049;-74
2021/09/03 02:36:36;;;;;;;1.00;0.10;;;;;;;9.71;68.48;100411.50;1700557;83;21088;-74
2021/09/03 02:39:03;;;;;;;0.10;0.10;;;;;;;9.75;68.45;100411.97;1692753;83;21048;-73
2021/09/03 02:41:31;;;;;;;1.23;0.20;;;;;;;9.77;68.48;100412.61;1695576;83;21161;-74
2021/09/03 02:43:57;;;;;;;0.20;0.10;;;;;;;9.76;68.48;100414.97;1671206;83;21050;-74
2021/09/03 02:46:23;;;;;;;2.17;0.10;;;;;;;9.74;68.58;100415.66;1694179;83;21030;-73
2021/09/03 02:48:52;;;;;;;3.20;0.20;;;;;;;9.72;68.74;100407.02;1679918;83;21768;-73
2021/09/03 02:51:22;;;;;;;0.83;0.30;;;;;;;9.70;68.86;100413.00;1684282;83;21176;-74
2021/09/03 02:53:49;;;;;;;0.40;0.10;;;;;;;9.71;68.94;100413.34;1687209;83;21144;-74
2021/09/03 02:56:17;;;;;;;2.13;0.20;;;;;;;9.79;68.71;100409.27;1683679;83;21084;-74
2021/09/03 02:58:42;;;;;;;0.50;0.20;;;;;;;9.84;68.68;100410.88;1639087;85;21658;-73
2021/09/03 03:01:09;;;;;;;0.25;0.10;;;;;;;9.84;68.84;100413.55;1642095;85;21108;-74
2021/09/03 03:03:37;;;;;;;3.60;0.20;;;;;;;9.81;68.80;100411.75;1685096;83;21108;-73
2021/09/03 03:06:05;;;;;;;0.30;0.10;;;;;;;9.77;69.17;100417.94;1704149;82;21646;-74
2021/09/03 03:08:33;;;;;;;2.07;0.30;;;;;;;9.76;69.24;100420.29;1683983;83;21606;-73
2021/09/03 03:11:00;;;;;;;1.07;0.60;;;;;;;9.73;69.40;100412.66;1681603;83;21090;-73
2021/09/03 03:13:30;;;;;;;0.53;0.20;;;;;;;9.73;69.31;100416.14;1689321;82;21155;-74
2021/09/03 03:15:56;;;;;;;0.57;0.20;;;;;;;9.79;69.25;100421.75;1674316;83;21042;-72
2021/09/03 03:18:24;;;;;;;4.53;0.40;;;;;;;9.82;69.11;100430.20;1672520;84;21527;-73
2021/09/03 03:20:52;;;;;;;2.43;0.37;;;;;;;9.81;69.07;100419.22;1667275;83;21072;-74
2021/09/03 03:23:19;;;;;;;1.83;0.30;;;;;;;9.77;69.13;100425.10;1674639;83;21575;-72
2021/09/03 03:25:46;;;;;;;1.10;0.47;;;;;;;9.73;69.09;100425.97;1670132;83;21868;-74
2021/09/03 03:28:13;;;;;;;3.33;0.70;;;;;;;9.69;69.04;100429.48;1696604;83;21095;-73
2021/09/03 03:30:41;;;;;;;1.23;0.40;;;;;;;9.66;69.16;100421.03;1681412;83;21707;-74
2021/09/03 03:33:07;;;;;;;2.00;0.40;;;;;;;9.66;69.17;100427.69;1675656;84;21149;-75
2021/09/03 03:35:33;;;;;;;1.45;0.28;;;;;;;9.70;69.11;100419.66;1688958;83;21009;-73
2021/09/03 03:38:00;;;;;;;;;;;;;;;9.68;69.08;100427.00;1687322;82;21041;-73
2021/09/03 03:40:26;;;;;;;1.13;0.40;;;;;;;9.67;69.25;100428.02;1686718;83;20139;-75
2021/09/03 03:42:54;;;;;;;3.10;0.17;;;;;;;9.65;69.29;100424.72;1694338;83;21701;-74
2021/09/03 03:45:21;;;;;;;0.40;0.33;;;;;;;9.71;69.66;100434.64;1611196;87;21730;-73
2021/09/03 03:47:48;;;;;;;0.77;0.30;;;;;;;9.86;68.89;100428.83;1652656;85;21096;-73
2021/09/03 03:50:14;;;;;;;2.67;0.20;;;;;;;10.06;68.22;100424.33;1634496;86;21019;-74
2021/09/03 03:52:40;;;;;;;5.15;0.60;;;;;;;10.27;67.73;100420.41;1619956;86;21283;-73
2021/09/03 03:55:09;;;;;;;2.77;0.20;;;;;;;10.64;66.70;100417.34;1638241;85;20994;-73
2021/09/03 03:57:35;;;;;;;0.80;0.30;;;;;;;11.16;65.22;100414.61;1659183;83;21077;-73
2021/09/03 04:00:04;;;;;;;2.70;0.68;;;;;;;11.73;64.25;100413.66;1652586;84;21056;-75
2021/09/03 04:02:30;;;;;;;1.20;0.25;;;;;;;12.37;61.98;100415.83;1649650;85;21110;-75
2021/09/03 04:04:56;;;;;;;1.32;0.30;;;;;;;12.94;59.71;100411.95;1659551;85;21100;-74
2021/09/03 04:07:22;;;;;;;1.30;0.20;;;;;;;13.44;57.85;100415.64;1661784;84;21115;-74
2021/09/03 04:09:49;;;;;;;0.85;0.20;;;;;;;13.80;55.96;100419.23;1659081;84;21623;-75
2021/09/03 04:12:15;;;;;;;;;;;;;;;14.10;54.99;100418.78;1616327;86;20998;-75
2021/09/03 04:14:42;;;;;;;1.30;0.25;;;;;;;14.37;54.03;100423.58;1664843;84;20484;-73
2021/09/03 04:17:11;;;;;;;1.37;0.20;;;;;;;14.64;52.55;100420.83;1649241;85;21111;-75
2021/09/03 04:19:41;;;;;;;3.47;0.33;;;;;;;14.99;51.86;100418.59;1655199;85;21020;-74
2021/09/03 04:22:09;;;;;;;2.30;0.30;;;;;;;15.45;51.00;100413.13;1655819;83;21479;-75
2021/09/03 04:24:41;;;;;;;1.50;0.60;;;;;;;15.97;49.89;100413.70;1658224;85;21041;-76
2021/09/03 04:27:09;;;;;;;2.47;0.30;;;;;;;16.26;49.13;100411.36;1655337;85;21516;-77
2021/09/03 04:29:36;;;;;;;1.52;0.28;;;;;;;16.93;46.15;100406.82;1619401;86;21090;-77
2021/09/03 04:32:05;;;;;;;1.62;0.40;;;;;;;16.93;46.15;100406.82;1653413;85;21003;-76
2021/09/03 04:34:32;;;;;;;3.35;0.35;;;;;;;17.26;45.71;100406.84;1671024;83;21709;-77
2021/09/03 04:36:58;;;;;;;4.12;0.20;;;;;;;17.62;45.14;100409.06;1684340;82;21035;-76
2021/09/03 04:39:24;;;;;;;2.55;0.20;;;;;;;17.94;44.23;100409.29;1693735;83;21026;-76
2021/09/03 04:41:50;;;;;;;1.82;0.10;;;;;;;18.25;43.25;100412.95;1678757;83;21046;-75
2021/09/03 04:44:16;;;;;;;2.20;0.20;;;;;;;18.38;43.36;100419.94;1687824;83;21519;-83
2021/09/03 04:46:44;;;;;;;1.35;0.20;;;;;;;18.48;42.53;100418.02;1686678;83;21003;-80
2021/09/03 04:49:11;;;;;;;1.77;0.20;;;;;;;18.43;42.22;100417.36;1685865;83;21166;-75
2021/09/03 04:51:37;;;;;;;1.55;0.20;;;;;;;18.36;43.17;100415.31;1686121;83;21026;-74
2021/09/03 04:54:04;;;;;;;4.67;0.30;;;;;;;18.53;42.30;100419.98;1686812;84;21546;-75
2021/09/03 04:56:31;;;;;;;0.50;0.30;;;;;;;18.73;41.88;100416.34;1672136;83;21561;-74
2021/09/03 04:58:57;;;;;;;0.20;0.20;;;;;;;18.93;42.27;100416.45;1651070;84;21488;-78
2021/09/03 05:01:28;;;;;;;2.40;0.28;;;;;;;18.98;40.89;100417.37;1663735;83;21176;-76
2021/09/03 05:03:54;;;;;;;0.68;0.13;;;;;;;18.79;42.32;100419.42;1701835;83;21056;-77
2021/09/03 05:06:22;;;;;;;2.77;0.20;;;;;;;18.94;40.96;100418.11;1692286;83;21824;-74
2021/09/03 05:08:49;;;;;;;1.57;0.45;;;;;;;18.96;40.77;100420.03;1696337;83;21096;-77
2021/09/03 05:11:16;;;;;;;0.78;0.23;;;;;;;18.98;41.00;100417.37;1692158;82;21022;-76
2021/09/03 05:13:43;;;;;;;1.55;0.30;;;;;;;19.10;40.93;100406.53;1675591;84;21038;-77
2021/09/03 05:16:09;;;;;;;2.08;0.30;;;;;;;19.26;40.49;100415.70;1679227;84;21004;-79
2021/09/03 05:18:37;;;;;;;4.28;0.60;;;;;;;19.23;40.06;100418.38;1666268;84;21203;-80
2021/09/03 05:21:08;;;;;;;2.62;0.30;;;;;;;19.08;40.66;100415.92;1674725;84;21085;-78
2021/09/03 05:23:36;;;;;;;4.03;0.55;;;;;;;19.09;40.02;100414.88;1703070;82;21022;-78
2021/09/03 05:26:02;;;;;;;2.15;0.28;;;;;;;19.02;39.99;100415.84;1705669;82;21166;-79
2021/09/03 05:28:31;;;;;;;3.30;0.37;;;;;;;18.75;40.89;100419.61;1708179;82;21654;-78
2021/09/03 05:30:58;;;;;;;1.65;0.40;;;;;;;18.80;40.74;100421.10;1707945;82;21127;-79
2021/09/03 05:33:26;;;;;;;1.95;0.37;;;;;;;18.96;40.41;100415.98;1701939;82;21055;-79
2021/09/03 05:35:52;;;;;;;0.90;0.20;;;;;;;19.12;39.83;100411.66;1680780;82;21112;-77
2021/09/03 05:38:19;;;;;;;5.87;0.20;;;;;;;19.17;39.59;100409.87;1708327;82;21006;-76
2021/09/03 05:40:47;;;;;;;1.00;0.40;;;;;;;19.14;39.70;100416.32;1706254;82;21121;-76
2021/09/03 05:43:13;;;;;;;2.70;0.53;;;;;;;18.92;39.93;100411.59;1700864;82;21010;-75
2021/09/03 05:45:39;;;;;;;;;;;;;;;18.74;40.49;100411.24;1676606;83;21057;-78
2021/09/03 05:48:05;;;;;;;1.40;0.50;;;;;;;18.68;40.89;100413.53;1678958;83;20232;-78
2021/09/03 05:50:32;;;;;;;0.62;0.15;;;;;;;18.70;40.79;100410.05;1671697;84;21108;-78
2021/09/03 05:52:59;;;;;;;5.58;0.50;;;;;;;18.81;40.99;100405.71;1682761;83;21062;-81
2021/09/03 05:55:25;;;;;;;4.35;0.30;;;;;;;18.20;41.06;100286.05;1666119;83;21498;-68
2021/09/03 05:57:54;;;;;;;;;;;;;;;19.17;40.13;100396.91;1678018;85;21117;-79
2021/09/03 06:00:21;;;;;;;1.82;0.50;;;;;;;19.33;39.97;100400.16;1650677;85;20397;-78
2021/09/03 06:02:47;;;;;;;4.83;0.28;;;;;;;19.40;39.42;100391.88;1700909;82;21069;-78
2021/09/03 06:05:13;;;;;;;;;;;;;;;19.36;39.48;100393.44;1711991;82;21033;-80
2021/09/03 06:07:39;;;;;;;3.20;0.47;;;;;;;19.29;40.14;100393.61;1711374;82;20145;-79
2021/09/03 06:10:06;;;;;;;;;;;;;;;19.20;39.73;100396.42;1722784;82;21000;-78
2021/09/03 06:12:33;;;;;;;0.70;0.40;;;;;;;19.21;39.79;100392.64;1710171;82;20169;-80
2021/09/03 06:15:01;;;;;;;1.42;0.20;;;;;;;19.19;40.61;100388.86;1710183;82;21155;-77
2021/09/03 06:17:29;;;;;;;7.22;0.30;;;;;;;19.29;40.33;100386.02;1699758;82;21079;-81
2021/09/03 06:19:55;;;;;;;1.87;0.40;;;;;;;19.49;39.32;100383.64;1704437;82;21051;-79
2021/09/03 06:22:22;;;;;;;2.02;0.80;;;;;;;19.54;38.78;100384.27;1701434;82;21112;-80
2021/09/03 06:24:51;;;;;;;5.10;0.20;;;;;;;19.23;39.24;100379.20;1709324;82;21069;-82
2021/09/03 06:27:20;;;;;;;4.45;0.20;;;;;;;18.81;39.92;100378.17;1675383;85;21067;-81
2021/09/03 06:29:48;;;;;;;3.92;0.45;;;;;;;18.79;40.92;100380.80;1661123;84;21155;-79
2021/09/03 06:32:19;;;;;;;5.60;0.50;;;;;;;18.99;40.12;100378.50;1667207;85;21080;-80
2021/09/03 06:34:52;;;;;;;2.40;0.30;;;;;;;19.16;39.27;100371.77;1658932;85;21035;-81
2021/09/03 06:37:22;;;;;;;2.58;0.50;;;;;;;19.13;39.71;100369.55;1651188;85;21061;-80
2021/09/03 06:39:50;;;;;;;3.98;0.33;;;;;;;19.01;39.44;100370.98;1660134;85;21031;-78
2021/09/03 06:42:17;;;;;;;3.27;0.57;;;;;;;18.81;40.09;100370.06;1642913;85;21006;-80
2021/09/03 06:44:44;;;;;;;0.30;0.20;;;;;;;18.73;40.23;100372.33;1714259;82;21094;-80
2021/09/03 06:47:12;;;;;;;6.33;0.30;;;;;;;18.91;40.00;100372.67;1717493;82;21519;-79
2021/09/03 06:49:39;;;;;;;3.02;0.30;;;;;;;18.97;39.90;100374.42;1679700;84;21058;-80
2021/09/03 06:52:07;;;;;;;3.40;0.20;;;;;;;18.83;40.57;100373.88;1709236;82;21073;-80
2021/09/03 06:54:36;;;;;;;3.15;0.60;;;;;;;18.91;40.55;100376.21;1712150;82;21623;-80
2021/09/03 06:57:04;;;;;;;1.72;0.23;;;;;;;18.93;40.86;100370.03;1670199;83;21570;-80
2021/09/03 06:59:31;;;;;;;1.05;0.17;;;;;;;18.77;40.74;100372.94;1678938;83;21189;-79
2021/09/03 07:01:57;;;;;;;3.08;0.30;;;;;;;18.51;40.89;100380.27;1703424;82;21000;-79
2021/09/03 07:04:25;;;;;;;0.95;0.28;;;;;;;18.16;41.57;100371.72;1716031;82;21450;-80
2021/09/03 07:06:51;;;;;;;2.58;0.15;;;;;;;17.88;41.96;100375.46;1716139;82;21097;-74
2021/09/03 07:09:19;;;;;;;0.93;0.15;;;;;;;17.57;42.39;100375.78;1713572;82;22100;-77
2021/09/03 07:11:48;;;;;;;2.25;0.30;;;;;;;17.31;43.33;100373.30;1714442;82;21045;-80
2021/09/03 07:14:14;;;;;;;6.22;0.33;;;;;;;17.08;44.01;100382.67;1718150;82;21261;-80
2021/09/03 07:16:42;;;;;;;2.27;0.20;;;;;;;16.90;44.81;100382.22;1718794;82;21255;-80
2021/09/03 07:19:08;;;;;;;;;;;;;;;16.79;45.58;100374.36;1716241;82;21097;-81
2021/09/03 07:21:37;;;;;;;1.35;0.10;;;;;;;16.74;45.58;100378.25;1715780;83;20195;-80
2021/09/03 07:24:03;;;;;;;0.78;0.15;;;;;;;16.69;45.86;100378.95;1690829;82;21105;-78
2021/09/03 07:26:31;;;;;;;0.47;0.10;;;;;;;16.69;45.61;100374.91;1667872;83;21163;-78
2021/09/03 07:28:58;;;;;;;1.52;0.30;;;;;;;16.67;45.53;100367.59;1685839;83;22249;-79
2021/09/03 07:31:25;;;;;;;0.42;0.30;;;;;;;16.68;45.80;100362.49;1684062;83;21559;-78
2021/09/03 07:33:52;;;;;;;1.87;0.20;;;;;;;16.68;45.90;100365.72;1685504;83;21520;-80
2021/09/03 07:36:18;;;;;;;2.08;0.35;;;;;;;16.68;46.11;100358.98;1674445;83;21034;-80
2021/09/03 07:38:44;;;;;;;3.67;0.17;;;;;;;16.70;45.57;100363.61;1672507;84;21066;-78
2021/09/03 07:41:10;;;;;;;2.95;0.17;;;;;;;16.62;45.92;100363.94;1677674;83;21095;-78
2021/09/03 07:43:40;;;;;;;4.58;0.20;;;;;;;16.54;46.47;100365.89;1685176;83;21088;-80
2021/09/03 07:46:07;;;;;;;0.75;0.13;;;;;;;16.54;47.33;100356.48;1701837;82;21058;-80
2021/09/03 07:48:34;;;;;;;0.45;0.20;;;;;;;16.64;47.40;100354.58;1698820;83;21027;-79
2021/09/03 07:51:01;;;;;;;2.00;0.10;;;;;;;16.78;46.17;100349.02;1703181;83;21093;-79
2021/09/03 07:53:27;;;;;;;6.30;0.40;;;;;;;16.76;46.02;100341.16;1699885;83;21086;-78
2021/09/03 07:55:53;;;;;;;1.02;0.10;;;;;;;16.82;46.39;100347.03;1690107;83;21058;-79
2021/09/03 07:58:19;;;;;;;3.33;0.40;;;;;;;16.82;46.39;100347.03;1686370;83;21129;-78
2021/09/03 08:00:45;;;;;;;0.82;0.15;;;;;;;16.89;47.05;100336.95;1682126;83;21621;-79
2021/09/03 08:03:11;;;;;;;;;;;;;;;16.99;45.77;100336.42;1700185;83;21089;-80
2021/09/03 08:05:38;;;;;;;6.17;0.40;;;;;;;17.08;46.54;100335.54;1695986;83;20165;-80
2021/09/03 08:08:06;;;;;;;1.95;0.30;;;;;;;17.15;45.43;100330.88;1697070;83;21356;-80
2021/09/03 08:10:35;;;;;;;1.50;0.10;;;;;;;17.23;45.33;100331.87;1645061;86;21078;-80
2021/09/03 08:13:05;;;;;;;3.02;0.10;;;;;;;17.28;44.80;100329.31;1646549;85;21010;-80
2021/09/03 08:15:33;;;;;;;1.00;0.13;;;;;;;17.30;44.98;100332.59;1644021;85;21674;-80
2021/09/03 08:17:59;;;;;;;2.70;0.30;;;;;;;17.40;45.63;100322.58;1643119;85;21137;-79
2021/09/03 08:20:27;;;;;;;3.33;0.10;;;;;;;17.53;45.00;100326.11;1639875;85;21090;-80
2021/09/03 08:22:53;;;;;;;0.68;0.10;;;;;;;17.61;45.50;100326.58;1612263;86;21102;-79
2021/09/03 08:25:20;;;;;;;3.37;0.20;;;;;;;17.71;44.92;100311.97;1603723;86;21196;-81
2021/09/03 08:27:49;;;;;;;1.85;0.10;;;;;;;17.77;44.55;100308.86;1608165;87;21012;-80
2021/09/03 08:30:17;;;;;;;0.35;0.10;;;;;;;17.80;44.67;100313.79;1599883;88;21114;-78
2021/09/03 08:32:44;;;;;;;0.85;0.25;;;;;;;17.84;43.75;100314.14;1604615;88;21054;-81
2021/09/03 08:35:11;;;;;;;4.12;0.25;;;;;;;17.87;43.93;100311.79;1611828;85;21093;-80
2021/09/03 08:37:39;;;;;;;;;;;;;;;17.86;43.31;100310.17;1646607;83;21077;-79
2021/09/03 08:40:10;;;;;;;2.27;0.10;;;;;;;17.84;43.72;100304.70;1621871;86;20228;-80
2021/09/03 08:42:39;;;;;;;1.37;0.28;;;;;;;17.82;43.67;100305.44;1674437;83;21054;-79
2021/09/03 08:45:09;;;;;;;2.12;0.20;;;;;;;17.82;43.60;100295.50;1673376;83;21107;-77
2021/09/03 08:47:43;;;;;;;1.12;0.30;;;;;;;17.82;43.72;100304.94;1675946;83;21072;-79
2021/09/03 08:50:13;;;;;;;0.78;0.08;;;;;;;17.87;44.14;100305.05;1688105;82;21042;-78
2021/09/03 08:52:49;;;;;;;1.25;0.10;;;;;;;17.95;44.16;100302.55;1654679;85;21069;-82
2021/09/03 08:55:17;;;;;;;0.45;0.10;;;;;;;17.96;43.94;100297.42;1685094;82;21069;-80
2021/09/03 08:57:44;;;;;;;1.98;0.23;;;;;;;17.97;44.22;100292.34;1675301;83;21050;-81
2021/09/03 09:00:30;;;;;;;1.15;0.10;;;;;;;17.97;44.30;100293.68;1685555;83;21582;-80
2021/09/03 09:03:06;;;;;;;1.07;0.13;;;;;;;18.01;44.14;100295.38;1706088;82;21038;-80
2021/09/03 09:05:56;;;;;;;0.20;0.00;;;;;;;18.00;43.40;100291.03;1693080;82;21090;-78
2021/09/03 09:08:25;;;;;;;0.70;0.10;;;;;;;17.96;43.80;100282.59;1700225;82;21029;-79
2021/09/03 09:11:04;;;;;;;0.68;0.10;;;;;;;17.95;43.01;100275.58;1696718;83;21582;-81
2021/09/03 09:13:35;;;;;;;5.62;0.45;;;;;;;17.96;43.15;100285.29;1694416;83;21738;-80
2021/09/03 09:16:14;;;;;;;1.37;0.10;;;;;;;18.03;43.04;100277.08;1715455;82;21054;-80
2021/09/03 09:18:54;;;;;;;1.02;0.10;;;;;;;18.10;42.83;100280.43;1693933;82;21073;-79
2021/09/03 09:21:30;;;;;;;2.80;0.40;;;;;;;18.14;42.31;100267.28;1722119;82;21059;-80
2021/09/03 09:24:02;;;;;;;;;;;;;;;18.16;42.55;100267.86;1694828;82;21146;-82
2021/09/03 09:26:46;;;;;;;1.65;0.35;;;;;;;17.92;43.05;100222.65;1707017;82;20156;-79
2021/09/03 09:29:28;;;;;;;2.00;0.30;;;;;;;18.24;42.89;100265.61;1704636;82;21228;-81
2021/09/03 09:31:59;;;;;;;5.00;0.60;;;;;;;18.32;43.18;100263.59;1703928;82;21026;-81
2021/09/03 09:34:38;;;;;;;1.27;0.10;;;;;;;18.39;43.70;100263.73;1661519;82;21239;-79
2021/09/03 09:37:10;;;;;;;2.62;0.10;;;;;;;18.41;42.72;100262.95;1677195;82;22152;-80
2021/09/03 09:39:56;;;;;;;3.10;0.20;;;;;;;18.29;43.04;100266.25;1666211;83;21154;-79
2021/09/03 09:42:30;;;;;;;1.82;0.10;;;;;;;18.10;43.51;100262.89;1668528;83;21115;-79
2021/09/03 09:45:07;;;;;;;2.85;0.10;;;;;;;17.97;43.64;100250.53;1676470;83;21118;-80
2021/09/03 09:47:33;;;;;;;;;;;;;;;17.98;43.06;100245.41;1688806;83;21066;-78
2021/09/03 09:50:22;;;;;;;1.17;0.10;;;;;;;18.04;43.70;100251.19;1698038;83;20182;-77
2021/09/03 09:52:48;;;;;;;0.80;0.10;;;;;;;18.06;44.05;100250.95;1681755;83;21592;-82
2021/09/03 09:55:14;;;;;;;;;;;;;;;18.07;43.09;100240.47;1656248;81;21082;-83
2021/09/03 09:57:43;;;;;;;1.65;0.10;;;;;;;18.01;43.17;100234.16;1632164;85;20271;-78
2021/09/03 10:00:11;;;;;;;0.40;0.10;;;;;;;17.93;43.74;100239.10;1624128;84;21041;-78
2021/09/03 10:02:38;;;;;;;1.87;0.30;;;;;;;17.99;43.70;100238.13;1680755;83;21128;-76
2021/09/03 10:05:06;;;;;;;4.75;0.20;;;;;;;18.09;43.70;100237.00;1646263;85;21042;-77
2021/09/03 10:07:32;;;;;;;0.47;0.10;;;;;;;18.25;43.29;100246.19;1656228;85;21093;-77
2021/09/03 10:09:58;;;;;;;;;;;;;;;18.34;43.22;100240.70;1690653;83;21061;-77
2021/09/03 10:12:24;;;;;;;1.05;0.10;;;;;;;18.34;42.15;100240.70;1684077;83;20155;-77
2021/09/03 10:14:51;;;;;;;0.15;0.10;;;;;;;18.24;42.92;100241.33;1690917;83;21151;-77
2021/09/03 10:17:20;;;;;;;1.57;0.10;;;;;;;18.26;42.75;100228.42;1674929;83;21053;-78
2021/09/03 10:19:50;;;;;;;2.05;0.10;;;;;;;18.32;42.96;100228.52;1676833;83;21014;-74
2021/09/03 10:22:19;;;;;;;1.00;0.17;;;;;;;18.36;42.92;100231.83;1664443;83;21078;-73
2021/09/03 10:24:47;;;;;;;2.47;0.10;;;;;;;18.48;43.22;100231.78;1679365;83;21129;-69
2021/09/03 10:27:16;;;;;;;2.12;0.28;;;;;;;18.59;43.10;100224.16;1674133;84;21049;-70
2021/09/03 10:29:49;;;;;;;0.95;0.10;;;;;;;18.65;42.20;100222.36;1665913;83;21064;-84
2021/09/03 10:32:21;;;;;;;2.60;0.20;;;;;;;18.63;42.17;100221.25;1679531;84;21146;-81
2021/09/03 10:34:55;;;;;;;0.40;0.20;;;;;;;18.63;42.24;100216.39;1686459;83;21078;-66
2021/09/03 10:37:32;;;;;;;0.20;0.10;;;;;;;18.66;41.84;100213.98;1699911;83;21098;-67
2021/09/03 10:40:13;;;;;;;2.87;0.40;;;;;;;18.64;41.91;100205.31;1695190;82;21123;-65
2021/09/03 10:42:46;;;;;;;1.17;0.10;;;;;;;18.60;42.13;100211.47;1692903;83;21566;-66
2021/09/03 10:45:27;;;;;;;3.10;0.30;;;;;;;18.53;41.71;100214.31;1700233;82;21092;-66
2021/09/03 10:48:03;;;;;;;2.17;0.10;;;;;;;18.47;41.31;100215.30;1692967;82;21058;-66
2021/09/03 10:50:54;;;;;;;12.28;0.75;;;;;;;18.37;41.41;100210.55;1695632;83;21087;-67
2021/09/03 10:53:35;;;;;;;2.05;0.20;;;;;;;18.29;42.02;100209.59;1696207;82;21101;-65
2021/09/03 10:56:12;;;;;;;3.98;0.30;;;;;;;18.30;42.36;100208.52;1695989;83;21023;-64
2021/09/03 10:58:52;;;;;;;6.75;0.25;;;;;;;18.36;42.49;100204.03;1693614;83;21118;-65
2021/09/03 11:01:27;;;;;;;4.85;0.37;;;;;;;18.41;42.05;100200.89;1687436;82;21069;-66
2021/09/03 11:04:10;;;;;;;2.42;0.40;;;;;;;18.44;41.99;100201.77;1687466;83;21030;-66
2021/09/03 11:06:40;;;;;;;3.15;0.30;;;;;;;18.44;42.11;100191.48;1696486;82;21133;-65
2021/09/03 11:09:21;;;;;;;0.88;0.23;;;;;;;18.44;42.27;100196.87;1668969;84;21543;-66
2021/09/03 11:11:51;;;;;;;1.07;0.40;;;;;;;18.49;42.30;100193.73;1692370;83;21211;-66
2021/09/03 11:14:27;;;;;;;2.92;0.50;;;;;;;18.55;42.33;100192.48;1694230;83;21058;-65
2021/09/03 11:17:11;;;;;;;2.85;0.28;;;;;;;18.54;41.13;100186.27;1678479;83;21231;-66
2021/09/03 11:19:47;;;;;;;3.05;0.60;;;;;;;18.45;41.40;100187.73;1675268;83;21040;-65
2021/09/03 11:22:22;;;;;;;0.60;0.30;;;;;;;18.39;41.59;100173.88;1689421;83;21028;-65
2021/09/03 11:24:55;;;;;;;6.33;0.68;;;;;;;18.42;41.64;100182.30;1685274;83;21052;-65
2021/09/03 11:27:29;;;;;;;1.00;0.50;;;;;;;18.46;41.29;100174.00;1684337;83;21004;-68
2021/09/03 11:30:01;;;;;;;1.65;0.30;;;;;;;18.53;41.55;100171.12;1681782;83;21085;-66
2021/09/03 11:32:32;;;;;;;2.02;0.30;;;;;;;18.63;40.81;100163.75;1691480;82;21197;-66
2021/09/03 11:35:05;;;;;;;4.20;0.50;;;;;;;18.67;40.48;100160.84;1657838;83;21620;-66
2021/09/03 11:37:46;;;;;;;2.25;0.40;;;;;;;18.71;41.00;100153.06;1680797;83;21137;-68